createdAt,value
2018-06-09T00:01:20.384Z,44.67
2018-06-09T00:03:49.005Z,42.73
2018-06-09T00:06:17.512Z,44.07
2018-06-09T00:08:46.456Z,43.23
2018-06-09T00:11:15.127Z,41.47
2018-06-09T00:13:44.307Z,41.50
2018-06-09T00:16:12.904Z,43.00
2018-06-09T00:18:41.375Z,41.17
2018-06-09T00:21:09.866Z,42.03
2018-06-09T00:23:38.490Z,42.13
2018-06-09T00:26:06.908Z,41.77
2018-06-09T00:28:36.060Z,40.20
2018-06-09T00:31:04.538Z,39.47
2018-06-09T00:33:32.980Z,39.63
2018-06-09T00:36:01.673Z,39.07
2018-06-09T00:38:30.019Z,39.73
2018-06-09T00:40:58.808Z,40.43
2018-06-09T00:43:27.348Z,38.57
2018-06-09T00:45:55.942Z,39.20
2018-06-09T00:48:24.296Z,38.47
2018-06-09T00:50:52.856Z,39.13
2018-06-09T00:53:21.631Z,38.77
2018-06-09T00:55:54.636Z,39.27
2018-06-09T00:58:23.148Z,37.57
2018-06-09T01:00:51.727Z,38.27
2018-06-09T01:03:20.442Z,37.70
2018-06-09T01:05:48.748Z,39.07
2018-06-09T01:08:17.315Z,38.80
2018-06-09T01:10:45.831Z,39.47
2018-06-09T01:13:14.315Z,38.77
2018-06-09T01:15:42.902Z,36.87
2018-06-09T01:18:11.764Z,37.00
2018-06-09T01:20:40.353Z,38.90
2018-06-09T01:23:08.886Z,37.33
2018-06-09T01:25:37.485Z,36.60
2018-06-09T01:28:06.067Z,38.70
2018-06-09T01:30:35.036Z,37.13
2018-06-09T01:33:04.140Z,39.23
2018-06-09T01:35:33.001Z,40.40
2018-06-09T01:38:01.441Z,38.57
2018-06-09T01:40:30.243Z,37.60
2018-06-09T01:42:59.308Z,38.23
2018-06-09T01:45:27.772Z,40.87
2018-06-09T01:47:56.324Z,40.70
2018-06-09T01:50:25.160Z,38.60
2018-06-09T01:52:53.757Z,37.43
2018-06-09T01:55:22.300Z,39.00
2018-06-09T01:57:50.876Z,39.50
2018-06-09T02:00:19.455Z,39.37
2018-06-09T02:02:47.824Z,42.43
2018-06-09T02:05:16.291Z,41.17
2018-06-09T02:07:44.820Z,40.23
2018-06-09T02:10:13.333Z,38.40
2018-06-09T02:12:42.048Z,37.63
2018-06-09T02:15:10.663Z,38.50
2018-06-09T02:17:39.357Z,38.20
2018-06-09T02:20:08.054Z,36.73
2018-06-09T02:22:36.769Z,36.40
2018-06-09T02:25:05.499Z,34.77
2018-06-09T02:27:34.079Z,36.67
2018-06-09T02:30:02.356Z,36.80
2018-06-09T02:32:31.233Z,37.27
2018-06-09T02:34:59.514Z,38.03
2018-06-09T02:37:27.940Z,36.13
2018-06-09T02:39:56.853Z,38.27
2018-06-09T02:42:25.748Z,37.87
2018-06-09T02:44:54.813Z,36.43
2018-06-09T02:47:23.508Z,36.97
2018-06-09T02:49:52.250Z,36.43
2018-06-09T02:52:20.767Z,36.10
2018-06-09T02:54:49.281Z,35.60
2018-06-09T02:57:19.070Z,35.50
2018-06-09T02:59:48.183Z,36.47
2018-06-09T03:02:16.619Z,36.30
2018-06-09T03:04:45.409Z,37.53
2018-06-09T03:07:14.512Z,35.50
2018-06-09T03:09:43.022Z,36.97
2018-06-09T03:12:11.817Z,35.97
2018-06-09T03:14:40.556Z,33.73
2018-06-09T03:17:08.931Z,35.90
2018-06-09T03:19:37.598Z,34.97
2018-06-09T03:22:06.103Z,35.17
2018-06-09T03:24:34.615Z,33.87
2018-06-09T03:27:03.077Z,34.10
2018-06-09T03:29:31.665Z,35.17
2018-06-09T03:32:00.267Z,33.73
2018-06-09T03:34:28.887Z,33.70
2018-06-09T03:36:57.380Z,35.37
2018-06-09T03:39:25.918Z,33.20
2018-06-09T03:41:54.645Z,34.20
2018-06-09T03:44:23.420Z,33.87
2018-06-09T03:46:52.179Z,34.07
2018-06-09T03:49:21.093Z,33.83
2018-06-09T03:51:49.484Z,33.07
2018-06-09T03:54:18.261Z,32.97
2018-06-09T03:56:47.140Z,32.83
2018-06-09T03:59:15.745Z,32.60
2018-06-09T04:01:44.329Z,31.47
2018-06-09T04:04:13.161Z,31.73
2018-06-09T04:06:41.595Z,31.13
2018-06-09T04:09:10.197Z,30.43
2018-06-09T04:11:39.010Z,29.60
2018-06-09T04:14:07.543Z,29.50
2018-06-09T04:16:36.248Z,28.50
2018-06-09T04:19:05.074Z,28.17
2018-06-09T04:21:33.750Z,28.87
2018-06-09T04:24:02.433Z,28.03
2018-06-09T04:26:30.878Z,26.60
2018-06-09T04:28:59.533Z,26.17
2018-06-09T04:31:28.179Z,26.10
2018-06-09T04:33:57.062Z,25.20
2018-06-09T04:36:25.434Z,25.00
2018-06-09T04:38:53.889Z,24.67
2018-06-09T04:41:22.617Z,24.20
2018-06-09T04:43:51.282Z,24.37
2018-06-09T04:46:20.543Z,25.30
2018-06-09T04:48:49.363Z,23.80
2018-06-09T04:51:17.831Z,22.90
2018-06-09T04:53:46.263Z,22.17
2018-06-09T04:56:14.841Z,22.70
2018-06-09T04:58:43.768Z,23.13
2018-06-09T05:01:12.381Z,22.10
2018-06-09T05:03:40.853Z,21.90
2018-06-09T05:06:09.491Z,20.03
2018-06-09T05:08:38.107Z,18.57
2018-06-09T05:11:06.577Z,19.33
2018-06-09T05:13:35.239Z,19.80
2018-06-09T05:16:03.908Z,17.90
2018-06-09T05:18:32.300Z,19.23
2018-06-09T05:21:00.673Z,18.53
2018-06-09T05:23:29.140Z,16.30
2018-06-09T05:25:57.576Z,15.73
2018-06-09T05:28:26.013Z,17.87
2018-06-09T05:30:54.612Z,17.50
2018-06-09T05:33:23.181Z,17.10
2018-06-09T05:35:51.977Z,17.30
2018-06-09T05:38:20.200Z,16.00
2018-06-09T05:40:49.368Z,16.40
2018-06-09T05:43:17.925Z,16.63
2018-06-09T05:45:46.566Z,15.63
2018-06-09T05:48:14.956Z,17.87
2018-06-09T05:50:43.583Z,18.13
2018-06-09T05:53:12.008Z,16.63
2018-06-09T05:55:40.431Z,16.67
2018-06-09T05:58:08.901Z,16.80
2018-06-09T06:00:37.627Z,16.13
2018-06-09T06:03:06.059Z,17.07
2018-06-09T06:05:34.754Z,17.73
2018-06-09T06:08:03.324Z,18.03
2018-06-09T06:10:32.074Z,18.60
2018-06-09T06:13:00.435Z,17.50
2018-06-09T06:15:29.034Z,15.80
2018-06-09T06:17:57.615Z,16.03
2018-06-09T06:20:25.877Z,16.67
2018-06-09T06:22:54.397Z,16.33
2018-06-09T06:25:22.927Z,16.63
2018-06-09T06:27:51.578Z,16.20
2018-06-09T06:30:20.152Z,16.57
2018-06-09T06:32:48.647Z,16.77
2018-06-09T06:35:17.355Z,15.60
2018-06-09T06:37:45.953Z,15.97
2018-06-09T06:40:17.475Z,15.47
2018-06-09T06:42:45.875Z,14.73
2018-06-09T06:45:14.380Z,13.97
2018-06-09T06:47:43.073Z,15.07
2018-06-09T06:50:11.559Z,14.93
2018-06-09T06:52:40.046Z,15.23
2018-06-09T06:55:08.775Z,15.33
2018-06-09T06:57:37.413Z,14.37
2018-06-09T07:00:05.899Z,13.83
2018-06-09T07:02:34.150Z,12.17
2018-06-09T07:05:02.875Z,16.00
2018-06-09T07:07:31.229Z,16.07
2018-06-09T07:09:59.771Z,14.33
2018-06-09T07:12:28.285Z,15.07
2018-06-09T07:14:56.707Z,16.13
2018-06-09T07:17:25.136Z,16.60
2018-06-09T07:19:53.770Z,17.17
2018-06-09T07:22:22.393Z,16.50
2018-06-09T07:24:51.168Z,15.27
2018-06-09T07:27:19.626Z,14.57
2018-06-09T07:29:48.475Z,15.40
2018-06-09T07:32:17.060Z,16.47
2018-06-09T07:34:45.648Z,15.83
2018-06-09T07:37:14.298Z,16.70
2018-06-09T07:39:42.855Z,16.33
2018-06-09T07:42:11.470Z,17.33
2018-06-09T07:44:40.044Z,15.60
2018-06-09T07:47:08.619Z,15.43
2018-06-09T07:49:37.382Z,15.30
2018-06-09T07:52:05.979Z,17.07
2018-06-09T07:54:34.504Z,16.67
2018-06-09T07:57:03.131Z,16.90
2018-06-09T07:59:31.719Z,16.97
2018-06-09T08:02:00.006Z,16.83
2018-06-09T08:04:28.509Z,17.87
2018-06-09T08:06:57.387Z,17.90
2018-06-09T08:09:26.002Z,16.00
2018-06-09T08:11:54.606Z,16.63
2018-06-09T08:14:23.524Z,17.37
2018-06-09T08:16:52.089Z,18.27
2018-06-09T08:19:23.552Z,18.87
2018-06-09T08:21:52.010Z,17.47
2018-06-09T08:24:20.708Z,17.33
2018-06-09T08:26:49.201Z,17.87
2018-06-09T08:29:17.773Z,18.27
2018-06-09T08:31:46.356Z,18.07
2018-06-09T08:34:15.006Z,16.57
2018-06-09T08:36:43.523Z,16.10
2018-06-09T08:39:12.190Z,14.90
2018-06-09T08:41:40.719Z,15.70
2018-06-09T08:44:09.248Z,17.57
2018-06-09T08:46:37.702Z,16.57
2018-06-09T08:49:06.444Z,17.47
2018-06-09T08:51:34.950Z,17.40
2018-06-09T08:54:03.381Z,16.07
2018-06-09T08:56:31.937Z,17.63
2018-06-09T08:59:00.550Z,16.77
2018-06-09T09:01:29.033Z,15.73
2018-06-09T09:03:57.411Z,18.93
2018-06-09T09:06:26.295Z,19.97
2018-06-09T09:08:54.726Z,21.50
2018-06-09T09:11:23.017Z,21.63
2018-06-09T09:13:51.965Z,21.60
2018-06-09T09:16:20.913Z,18.97
2018-06-09T09:18:49.445Z,21.47
2018-06-09T09:21:18.065Z,17.97
2018-06-09T09:23:46.345Z,22.00
2018-06-09T09:26:14.662Z,20.03
2018-06-09T09:28:43.231Z,19.67
2018-06-09T09:31:11.733Z,19.70
2018-06-09T09:33:40.451Z,21.03
2018-06-09T09:36:08.972Z,22.03
2018-06-09T09:38:37.620Z,22.40
2018-06-09T09:41:06.813Z,21.90
2018-06-09T09:43:35.980Z,23.57
2018-06-09T09:46:04.659Z,21.70
2018-06-09T09:48:33.372Z,22.63
2018-06-09T09:51:01.919Z,19.60
2018-06-09T09:53:30.477Z,20.43
2018-06-09T09:55:58.809Z,22.20
2018-06-09T09:58:27.405Z,22.37
2018-06-09T10:00:55.896Z,23.40
2018-06-09T10:03:24.519Z,21.93
2018-06-09T10:05:53.200Z,19.60
2018-06-09T10:08:21.814Z,19.27
2018-06-09T10:10:50.313Z,21.60
2018-06-09T10:13:19.020Z,22.00
2018-06-09T10:15:47.827Z,22.00
2018-06-09T10:18:16.776Z,21.27
2018-06-09T10:20:45.281Z,20.13
2018-06-09T10:23:13.753Z,20.37
2018-06-09T10:25:42.399Z,21.83
2018-06-09T10:28:10.839Z,21.87
2018-06-09T10:30:39.695Z,21.00
2018-06-09T10:33:08.234Z,21.13
2018-06-09T10:35:36.901Z,18.63
2018-06-09T10:38:05.429Z,20.27
2018-06-09T10:40:34.204Z,21.90
2018-06-09T10:43:02.623Z,20.53
2018-06-09T10:45:32.062Z,19.93
2018-06-09T10:48:00.708Z,18.47
2018-06-09T10:50:29.413Z,22.47
2018-06-09T10:52:58.152Z,23.20
2018-06-09T10:55:27.033Z,21.40
2018-06-09T10:57:55.648Z,22.63
2018-06-09T11:00:24.156Z,20.30
2018-06-09T11:02:52.859Z,23.03
2018-06-09T11:05:21.586Z,22.67
2018-06-09T11:07:50.274Z,21.83
2018-06-09T11:10:18.756Z,23.40
2018-06-09T11:12:47.333Z,22.53
2018-06-09T11:15:15.776Z,20.90
2018-06-09T11:17:44.460Z,25.20
2018-06-09T11:20:13.337Z,23.93
2018-06-09T11:22:41.999Z,22.27
2018-06-09T11:25:10.502Z,25.50
2018-06-09T11:27:39.084Z,24.80
2018-06-09T11:30:07.547Z,26.40
2018-06-09T11:32:35.963Z,22.40
2018-06-09T11:35:04.913Z,24.57
2018-06-09T11:37:33.494Z,23.97
2018-06-09T11:40:01.918Z,26.80
2018-06-09T11:42:30.838Z,19.67
2018-06-09T11:44:59.194Z,21.53
2018-06-09T11:47:27.848Z,24.47
2018-06-09T11:49:56.679Z,24.07
2018-06-09T11:52:25.115Z,22.17
2018-06-09T11:54:53.721Z,21.03
2018-06-09T11:57:22.168Z,24.53
2018-06-09T11:59:50.814Z,21.77
2018-06-09T12:02:19.293Z,19.83
2018-06-09T12:04:47.969Z,23.07
2018-06-09T12:07:16.483Z,25.50
2018-06-09T12:09:45.044Z,24.73
2018-06-09T12:12:13.565Z,25.57
2018-06-09T12:14:42.359Z,24.33
2018-06-09T12:17:10.909Z,21.40
2018-06-09T12:19:39.237Z,24.20
2018-06-09T12:22:07.889Z,22.63
2018-06-09T12:24:36.791Z,19.77
2018-06-09T12:27:05.648Z,22.10
2018-06-09T12:29:34.529Z,20.43
2018-06-09T12:32:03.153Z,19.83
2018-06-09T12:34:31.664Z,21.77
2018-06-09T12:37:00.488Z,20.13
2018-06-09T12:39:28.950Z,23.00
2018-06-09T12:41:57.741Z,17.50
2018-06-09T12:44:26.435Z,20.40
2018-06-09T12:46:54.782Z,24.77
2018-06-09T12:49:23.691Z,21.43
2018-06-09T12:51:52.268Z,22.73
2018-06-09T12:54:20.840Z,20.00
2018-06-09T12:56:49.411Z,21.10
2018-06-09T12:59:18.094Z,18.73
2018-06-09T13:01:46.545Z,23.17
2018-06-09T13:04:15.269Z,19.63
2018-06-09T13:06:43.905Z,21.83
2018-06-09T13:09:12.595Z,20.57
2018-06-09T13:11:41.096Z,20.33
2018-06-09T13:14:09.550Z,22.90
2018-06-09T13:16:37.896Z,20.50
2018-06-09T13:19:06.525Z,20.33
2018-06-09T13:21:35.559Z,19.13
2018-06-09T13:24:03.973Z,22.57
2018-06-09T13:26:32.597Z,21.10
2018-06-09T13:29:01.375Z,22.77
2018-06-09T13:31:29.934Z,23.50
2018-06-09T13:33:58.641Z,22.43
2018-06-09T13:36:27.065Z,23.57
2018-06-09T13:38:55.480Z,23.50
2018-06-09T13:41:24.168Z,22.43
2018-06-09T13:43:52.785Z,23.33
2018-06-09T13:46:21.255Z,24.20
2018-06-09T13:48:49.701Z,25.13
2018-06-09T13:51:18.281Z,21.47
2018-06-09T13:53:46.802Z,24.00
2018-06-09T13:56:15.381Z,26.67
2018-06-09T13:58:43.969Z,22.13
2018-06-09T14:01:12.424Z,20.50
2018-06-09T14:03:41.051Z,24.43
2018-06-09T14:06:09.545Z,23.60
2018-06-09T14:08:37.932Z,27.80
2018-06-09T14:11:06.579Z,27.00
2018-06-09T14:13:35.186Z,22.63
2018-06-09T14:16:03.835Z,26.50
2018-06-09T14:18:32.456Z,24.93
2018-06-09T14:21:01.452Z,23.67
2018-06-09T14:23:30.134Z,22.73
2018-06-09T14:25:58.544Z,21.63
2018-06-09T14:28:27.298Z,21.75
2018-06-09T14:30:56.032Z,21.23
2018-06-09T14:33:24.839Z,26.02
2018-06-09T14:35:53.440Z,23.85
2018-06-09T14:38:22.012Z,24.50
2018-06-09T14:40:50.537Z,23.02
2018-06-09T14:43:18.997Z,24.67
2018-06-09T14:45:47.648Z,27.00
2018-06-09T14:48:16.301Z,26.75
2018-06-09T14:50:44.935Z,26.47
2018-06-09T14:53:13.652Z,23.47
2018-06-09T14:55:42.019Z,27.20
2018-06-09T14:58:10.789Z,30.57
2018-06-09T15:00:39.554Z,29.97
2018-06-09T15:03:07.971Z,27.63
2018-06-09T15:05:36.670Z,20.17
2018-06-09T15:08:05.467Z,24.87
2018-06-09T15:10:33.900Z,33.43
2018-06-09T15:13:02.577Z,28.93
2018-06-09T15:15:31.115Z,27.00
2018-06-09T15:17:59.900Z,27.47
2018-06-09T15:20:28.405Z,28.60
2018-06-09T15:22:56.860Z,29.60
2018-06-09T15:25:25.494Z,31.77
2018-06-09T15:27:53.914Z,30.83
2018-06-09T15:30:22.469Z,32.20
2018-06-09T15:32:50.912Z,30.33
2018-06-09T15:35:19.769Z,28.57
2018-06-09T15:37:48.169Z,34.40
2018-06-09T15:40:16.782Z,34.70
2018-06-09T15:42:45.495Z,33.37
2018-06-09T15:45:14.394Z,35.60
2018-06-09T15:47:42.848Z,33.33
2018-06-09T15:50:11.591Z,35.03
2018-06-09T15:52:39.993Z,34.30
2018-06-09T15:55:08.473Z,31.03
2018-06-09T15:57:37.222Z,33.57
2018-06-09T16:00:06.173Z,30.30
2018-06-09T16:02:34.665Z,32.30
2018-06-09T16:05:03.297Z,30.97
2018-06-09T16:07:31.730Z,33.40
2018-06-09T16:10:00.457Z,31.20
2018-06-09T16:12:29.213Z,29.67
2018-06-09T16:14:57.732Z,31.60
2018-06-09T16:17:26.244Z,33.70
2018-06-09T16:19:54.662Z,30.37
2018-06-09T16:22:23.505Z,32.37
2018-06-09T16:24:52.013Z,33.70
2018-06-09T16:27:20.680Z,28.27
2018-06-09T16:29:48.949Z,29.60
2018-06-09T16:32:17.579Z,29.70
2018-06-09T16:34:46.493Z,24.73
2018-06-09T16:37:14.961Z,25.77
2018-06-09T16:39:43.695Z,22.90
2018-06-09T16:42:12.102Z,24.17
2018-06-09T16:44:40.499Z,23.53
2018-06-09T16:47:09.255Z,23.37
2018-06-09T16:49:37.578Z,23.63
2018-06-09T16:52:06.461Z,22.30
2018-06-09T16:54:35.107Z,23.57
2018-06-09T16:57:03.813Z,19.93
2018-06-09T16:59:33.779Z,18.37
2018-06-09T17:02:03.011Z,21.80
2018-06-09T17:04:31.343Z,22.33
2018-06-09T17:07:00.469Z,18.20
2018-06-09T17:09:28.938Z,19.20
2018-06-09T17:11:57.557Z,20.20
2018-06-09T17:14:26.127Z,17.37
2018-06-09T17:16:54.982Z,20.40
2018-06-09T17:19:23.846Z,21.03
2018-06-09T17:21:52.457Z,20.80
2018-06-09T17:24:21.076Z,16.77
2018-06-09T17:26:49.598Z,17.87
2018-06-09T17:29:18.049Z,17.57
2018-06-09T17:31:46.656Z,16.40
2018-06-09T17:34:15.472Z,19.83
2018-06-09T17:36:43.941Z,17.37
2018-06-09T17:39:12.678Z,19.17
2018-06-09T17:41:41.095Z,17.50
2018-06-09T17:44:09.823Z,16.57
2018-06-09T17:46:38.535Z,16.80
2018-06-09T17:49:07.694Z,19.10
2018-06-09T17:51:36.150Z,19.77
2018-06-09T17:54:04.796Z,18.43
2018-06-09T17:56:33.588Z,19.57
2018-06-09T17:59:02.096Z,19.20
2018-06-09T18:01:30.855Z,17.27
2018-06-09T18:03:59.563Z,16.77
2018-06-09T18:06:27.892Z,16.90
2018-06-09T18:08:56.484Z,17.77
2018-06-09T18:11:25.003Z,17.63
2018-06-09T18:13:53.431Z,16.20
2018-06-09T18:16:21.941Z,16.73
2018-06-09T18:18:50.359Z,17.10
2018-06-09T18:21:19.241Z,15.37
2018-06-09T18:23:47.991Z,15.97
2018-06-09T18:26:16.513Z,15.70
2018-06-09T18:28:45.881Z,15.03
2018-06-09T18:31:14.451Z,13.97
2018-06-09T18:33:43.149Z,16.50
2018-06-09T18:36:11.775Z,15.87
2018-06-09T18:38:40.247Z,16.53
2018-06-09T18:41:08.529Z,13.80
2018-06-09T18:43:37.123Z,15.43
2018-06-09T18:46:05.364Z,14.63
2018-06-09T18:48:33.963Z,14.50
2018-06-09T18:51:02.674Z,13.83
2018-06-09T18:53:31.100Z,14.87
2018-06-09T18:55:59.591Z,14.93
2018-06-09T18:58:28.217Z,14.37
2018-06-09T19:00:56.769Z,16.07
2018-06-09T19:03:25.209Z,15.20
2018-06-09T19:05:54.028Z,15.07
2018-06-09T19:08:22.490Z,15.47
2018-06-09T19:10:50.934Z,15.60
2018-06-09T19:13:19.446Z,15.10
2018-06-09T19:15:48.057Z,16.03
2018-06-09T19:18:16.678Z,15.73
2018-06-09T19:20:45.185Z,15.37
2018-06-09T19:23:13.926Z,15.97
2018-06-09T19:25:42.484Z,15.37
2018-06-09T19:28:11.216Z,15.40
2018-06-09T19:30:39.605Z,14.53
2018-06-09T19:33:08.060Z,13.80
2018-06-09T19:35:36.623Z,14.13
2018-06-09T19:38:05.205Z,14.93
2018-06-09T19:40:34.250Z,14.37
2018-06-09T19:43:02.648Z,11.43
2018-06-09T19:45:31.474Z,15.20
2018-06-09T19:48:00.155Z,14.90
2018-06-09T19:50:28.784Z,15.47
2018-06-09T19:52:57.714Z,15.60
2018-06-09T19:55:26.621Z,14.20
2018-06-09T19:57:55.455Z,13.97
2018-06-09T20:00:24.377Z,12.80
2018-06-09T20:02:52.929Z,15.07
2018-06-09T20:05:21.481Z,14.77
2018-06-09T20:07:50.307Z,14.23
2018-06-09T20:10:18.967Z,14.80
2018-06-09T20:12:47.756Z,15.20
2018-06-09T20:15:16.444Z,14.57
2018-06-09T20:17:45.266Z,15.37
2018-06-09T20:20:13.636Z,15.70
2018-06-09T20:22:42.297Z,14.80
2018-06-09T20:25:11.051Z,15.40
2018-06-09T20:27:40.111Z,15.43
2018-06-09T20:30:09.000Z,15.60
2018-06-09T20:32:37.720Z,15.40
2018-06-09T20:35:06.467Z,14.90
2018-06-09T20:37:35.158Z,15.70
2018-06-09T20:40:03.765Z,15.70
2018-06-09T20:42:32.334Z,14.77
2018-06-09T20:45:00.860Z,16.10
2018-06-09T20:47:29.470Z,15.83
2018-06-09T20:49:58.298Z,14.60
2018-06-09T20:52:26.620Z,13.93
2018-06-09T20:54:55.475Z,13.50
2018-06-09T20:57:23.898Z,12.77
2018-06-09T20:59:52.466Z,13.90
2018-06-09T21:02:21.471Z,13.73
2018-06-09T21:04:50.176Z,12.73
2018-06-09T21:07:18.893Z,13.80
2018-06-09T21:09:47.423Z,12.70
2018-06-09T21:12:16.277Z,13.60
2018-06-09T21:14:44.867Z,14.13
2018-06-09T21:17:13.505Z,12.97
2018-06-09T21:19:41.953Z,12.30
2018-06-09T21:22:10.625Z,12.77
2018-06-09T21:24:39.340Z,14.10
2018-06-09T21:27:13.863Z,13.53
2018-06-09T21:29:48.224Z,13.60
2018-06-09T21:33:25.425Z,12.93
2018-06-09T21:36:01.782Z,13.27
2018-06-09T21:38:32.934Z,14.03
2018-06-09T21:41:06.751Z,13.10
2018-06-09T21:43:41.061Z,13.43
2018-06-09T21:46:13.919Z,14.50
2018-06-09T21:48:42.532Z,14.13
2018-06-09T21:51:11.232Z,14.00
2018-06-09T21:53:40.198Z,13.57
2018-06-09T21:56:08.801Z,13.73
2018-06-09T21:58:37.363Z,14.10
2018-06-09T22:01:06.189Z,14.40
2018-06-09T22:03:35.064Z,13.73
2018-06-09T22:06:03.817Z,14.40
2018-06-09T22:08:32.529Z,14.20
2018-06-09T22:11:01.357Z,14.13
2018-06-09T22:13:30.031Z,13.53
2018-06-09T22:15:58.659Z,14.13
2018-06-09T22:18:27.183Z,13.53
2018-06-09T22:20:55.493Z,13.30
2018-06-09T22:23:24.078Z,13.73
2018-06-09T22:25:58.386Z,13.90
2018-06-09T22:28:27.472Z,13.53
2018-06-09T22:30:56.077Z,12.90
2018-06-09T22:33:24.472Z,12.30
2018-06-09T22:35:53.256Z,12.40
2018-06-09T22:38:22.076Z,12.50
2018-06-09T22:40:51.008Z,12.50
2018-06-09T22:43:19.657Z,13.10
2018-06-09T22:45:48.506Z,11.97
2018-06-09T22:48:17.226Z,12.73
2018-06-09T22:50:45.752Z,12.50
2018-06-09T22:53:14.309Z,11.80
2018-06-09T22:55:43.132Z,11.37
2018-06-09T22:58:11.645Z,11.30
2018-06-09T23:00:57.940Z,10.80
2018-06-09T23:03:26.719Z,10.40
2018-06-09T23:05:55.210Z,11.43
2018-06-09T23:08:23.932Z,11.27
2018-06-09T23:10:52.822Z,9.67
2018-06-09T23:13:21.481Z,10.97
2018-06-09T23:15:50.292Z,10.40
2018-06-09T23:18:19.023Z,11.27
2018-06-09T23:20:47.548Z,11.20
2018-06-09T23:23:16.325Z,10.80
2018-06-09T23:25:44.769Z,11.70
2018-06-09T23:28:13.434Z,10.70
2018-06-09T23:30:42.116Z,10.33
2018-06-09T23:33:10.868Z,11.30
2018-06-09T23:35:39.579Z,10.50
2018-06-09T23:38:08.154Z,10.13
2018-06-09T23:40:36.559Z,10.33
2018-06-09T23:43:05.217Z,10.53
2018-06-09T23:45:33.972Z,9.57
2018-06-09T23:48:02.898Z,10.33
2018-06-09T23:50:31.392Z,11.17
2018-06-09T23:52:59.963Z,11.90
2018-06-09T23:55:28.810Z,11.27
2018-06-09T23:57:57.319Z,12.40
